Cantua Creek, CA

7:14 PM PST on December 26, 2014 (GMT -0800)
GFWS112 | Change Station
CLOSE
Current Station
Personal Weather Station
Location: Kerman, CA
Elevation: 197 ft
Nearby Weather Stations
Active Advisory: Freeze Warning

Elev 197 ft 36.65 °N, 120.09 °W | Updated 11 minutes ago

Clear
Clear
42.0 °F
Feels Like 42 °F
N
0.0
Wind Variable Wind from West
Gusts 0.0 mph

Today
High -- | Low -- °F
--% Chance of Precip.
Yesterday
High -- | Low -- °F
Precip. -- in
7:11 AM 4:52 PM
Waxing Crescent, 32% visible
Pressure 30.23 in
Visibility -9999.0 miles
Clouds Clear
Windchill 42 °F
Dew Point 38 °F
Humidity 87%
Rainfall 0.05 in
Snow Depth Not available.
UV 0 out of 12
Pollen 2.60 out of 12
Air Quality Not available.
Flu Activity Not available.
METAR KNLC 270256Z AUTO 31005KT CLR 05/02 A3023 RMK AO2 SLP237 T00500017 51014 RVRNO $

More Conditions Fewer Conditions

Pressure 30.23 in
Visibility -9999.0 miles
Clouds Clear
Windchill 42 °F
Dew Point 38 °F
Humidity 87%
Rainfall 0.05 in
Snow Depth Not available.
UV 0 out of 12
Pollen 2.60 out of 12
Air Quality Not available.
Flu Activity Not available.
METAR KNLC 270256Z AUTO 31005KT CLR 05/02 A3023 RMK AO2 SLP237 T00500017 51014 RVRNO $

More Conditions Fewer Conditions

10-Day Weather Forecast

Almanac

Astronomy

Dec. 26, 2014 Rise Set
Actual Time
Civil Twilight
Nautical Twilight
Astronomical Twilight
Moon
Length of Visible Light
Length of Day
Tomorrow will be .
, % of the Moon is Illuminated

Today's Extremes

State Highs State Lows

Community

WunderPhotos

Upload Photos

1,780,830 photos uploaded!

WunderBlogs® & News

Nearby

Air Quality

  Air Quality AQ Index Pollutant
Not available.

Snow Depth

Station Depth Elevation

Earthquake Activity

City Distance Mag. Time & Date
Minimum magnitude displayed is 2.5.

Coastal Water Temperatures

Place Temperature

Nearby Weather Stations